Time;durP1;ratioP1;P1;durP2;ratioP2;P2;SDS_P1;SDS_P2;PMS_P1;PMS_P2;Temp;Humidity;BMP_temperature;BMP_pressure;BME280_temperature;BME280_humidity;BME280_pressure;Samples;Min_cycle;Max_cycle;Signal;HPM_P1;HPM_P2
2021/09/11 00:01:58;;;;;;;23.15;15.95;;;;;;;15.13;62.55;100825.89;1749539;80;21146;-57
2021/09/11 00:04:27;;;;;;;21.20;14.07;;;;;;;15.09;63.01;100824.48;1750474;80;21532;-57
2021/09/11 00:06:55;;;;;;;24.90;16.48;;;;;;;15.03;63.43;100826.40;1759594;80;20990;-56
2021/09/11 00:09:24;;;;;;;22.55;16.27;;;;;;;14.97;63.88;100831.75;1720520;81;21015;-56
2021/09/11 00:11:52;;;;;;;33.08;16.37;;;;;;;14.94;64.09;100829.87;1759928;80;21319;-56
2021/09/11 00:14:21;;;;;;;26.42;15.60;;;;;;;14.94;64.04;100828.05;1725129;81;21072;-57
2021/09/11 00:16:48;;;;;;;21.80;14.90;;;;;;;14.99;64.04;100832.45;1723998;81;21112;-56
2021/09/11 00:19:15;;;;;;;21.85;14.90;;;;;;;15.03;63.99;100829.87;1693108;83;21017;-56
2021/09/11 00:21:42;;;;;;;24.27;16.57;;;;;;;15.05;63.99;100826.59;1713215;81;21084;-56
2021/09/11 00:24:11;;;;;;;26.10;17.02;;;;;;;15.01;64.03;100823.89;1755699;80;21069;-56
2021/09/11 00:26:38;;;;;;;23.87;15.78;;;;;;;14.98;64.15;100826.81;1734794;80;21241;-56
2021/09/11 00:29:04;;;;;;;22.90;16.30;;;;;;;14.98;64.53;100824.16;1719571;80;21084;-56
2021/09/11 00:31:31;;;;;;;24.12;17.37;;;;;;;14.99;64.58;100827.14;1752961;80;21625;-57
2021/09/11 00:33:58;;;;;;;23.18;14.95;;;;;;;14.97;64.73;100831.75;1738588;80;21061;-56
2021/09/11 00:36:26;;;;;;;22.35;15.98;;;;;;;14.96;64.77;100826.59;1752089;80;20966;-56
2021/09/11 00:38:53;;;;;;;26.95;15.93;;;;;;;14.95;64.87;100824.94;1755715;80;21124;-57
2021/09/11 00:41:22;;;;;;;25.68;13.30;;;;;;;14.95;64.84;100827.59;1722931;81;21604;-57
2021/09/11 00:43:49;;;;;;;21.57;13.38;;;;;;;14.98;64.75;100829.47;1701362;81;21022;-57
2021/09/11 00:46:16;;;;;;;25.40;16.20;;;;;;;15.00;64.73;100828.83;1757969;80;21068;-57
2021/09/11 00:48:44;;;;;;;24.85;14.20;;;;;;;15.01;64.65;100830.52;1726573;80;21088;-57
2021/09/11 00:51:13;;;;;;;20.02;14.70;;;;;;;14.97;64.71;100822.48;1726380;81;21162;-57
2021/09/11 00:53:39;;;;;;;22.82;14.85;;;;;;;14.92;64.71;100822.06;1725499;80;21149;-58
2021/09/11 00:56:07;;;;;;;20.52;16.00;;;;;;;14.90;64.69;100819.22;1754895;80;21488;-58
2021/09/11 00:58:34;;;;;;;20.72;15.88;;;;;;;14.87;64.59;100824.30;1700849;81;21073;-57
2021/09/11 01:01:01;;;;;;;21.90;14.83;;;;;;;14.81;64.39;100820.88;1757251;80;21128;-57
2021/09/11 01:03:28;;;;;;;25.60;15.28;;;;;;;14.76;64.29;100825.76;1727326;81;21208;-57
2021/09/11 01:05:54;;;;;;;23.60;14.50;;;;;;;14.66;64.23;100819.16;1750460;80;21532;-57
2021/09/11 01:08:24;;;;;;;22.70;15.28;;;;;;;14.56;64.11;100816.47;1752115;80;21000;-57
2021/09/11 01:10:53;;;;;;;21.70;15.25;;;;;;;14.50;63.84;100819.66;1756748;80;22488;-57
2021/09/11 01:13:19;;;;;;;29.70;16.37;;;;;;;14.46;63.54;100820.42;1752702;80;21088;-57
2021/09/11 01:15:49;;;;;;;18.07;13.62;;;;;;;14.51;63.10;100817.38;1721493;81;21102;-57
2021/09/11 01:18:17;;;;;;;25.48;16.50;;;;;;;14.54;63.00;100815.77;1753568;80;21048;-57
2021/09/11 01:20:46;;;;;;;22.75;15.50;;;;;;;14.54;63.15;100813.13;1753018;80;21089;-58
2021/09/11 01:23:13;;;;;;;26.75;17.32;;;;;;;14.54;63.28;100812.27;1724235;81;21078;-56
2021/09/11 01:25:40;;;;;;;23.57;16.77;;;;;;;14.52;63.29;100815.05;1719822;81;21314;-56
2021/09/11 01:28:06;;;;;;;27.55;16.87;;;;;;;14.52;63.04;100812.90;1751978;80;21875;-56
2021/09/11 01:30:33;;;;;;;20.90;14.98;;;;;;;14.51;62.96;100814.72;1723352;80;21056;-57
2021/09/11 01:33:00;;;;;;;24.98;16.12;;;;;;;14.47;62.91;100806.69;1753662;80;21077;-56
2021/09/11 01:35:28;;;;;;;22.65;17.32;;;;;;;14.43;62.96;100807.95;1689263;81;21153;-57
2021/09/11 01:37:55;;;;;;;23.40;17.05;;;;;;;14.36;63.18;100806.83;1754321;80;21114;-56
2021/09/11 01:40:24;;;;;;;21.77;15.85;;;;;;;14.30;63.16;100803.73;1740230;81;21185;-56
2021/09/11 01:42:51;;;;;;;24.30;16.17;;;;;;;14.25;63.14;100803.80;1725321;81;21136;-56
2021/09/11 01:45:20;;;;;;;22.17;14.63;;;;;;;14.21;63.14;100809.86;1731251;80;21053;-56
2021/09/11 01:47:49;;;;;;;29.80;16.27;;;;;;;14.19;63.41;100814.45;1749910;80;21356;-56
2021/09/11 01:50:20;;;;;;;23.65;14.85;;;;;;;14.26;63.47;100814.25;1721014;81;21678;-56
2021/09/11 01:52:49;;;;;;;21.87;14.75;;;;;;;14.30;63.35;100812.17;1749416;80;21093;-56
2021/09/11 01:55:16;;;;;;;20.62;14.68;;;;;;;14.33;63.39;100807.10;1719830;81;21034;-57
2021/09/11 01:57:45;;;;;;;24.85;17.00;;;;;;;14.31;63.51;100806.73;1729905;81;21053;-56
2021/09/11 02:00:16;;;;;;;26.33;16.20;;;;;;;14.34;63.63;100800.81;1722749;81;21011;-56
2021/09/11 02:02:42;;;;;;;20.30;14.33;;;;;;;14.37;63.59;100801.87;1751734;80;21080;-56
2021/09/11 02:05:10;;;;;;;22.80;15.08;;;;;;;14.35;63.59;100801.17;1752713;80;21145;-56
2021/09/11 02:07:38;;;;;;;25.35;15.93;;;;;;;14.30;63.87;100806.37;1725874;81;21064;-56
2021/09/11 02:10:08;;;;;;;22.60;16.10;;;;;;;14.24;64.26;100804.30;1729567;81;21580;-57
2021/09/11 02:12:35;;;;;;;24.95;15.15;;;;;;;14.19;64.47;100810.48;1758878;80;21548;-56
2021/09/11 02:15:02;;;;;;;24.23;15.98;;;;;;;14.15;64.44;100810.39;1752730;80;21082;-57
2021/09/11 02:17:30;;;;;;;22.95;14.30;;;;;;;14.16;64.33;100812.57;1709277;81;21841;-57
2021/09/11 02:19:58;;;;;;;22.05;15.35;;;;;;;14.18;64.12;100810.13;1728914;81;22462;-57
2021/09/11 02:22:25;;;;;;;25.15;16.07;;;;;;;14.20;63.86;100805.52;1755887;80;21685;-56
2021/09/11 02:24:54;;;;;;;21.55;15.05;;;;;;;14.20;63.79;100813.96;1726187;81;21080;-56
2021/09/11 02:27:21;;;;;;;22.05;14.95;;;;;;;14.15;63.83;100809.56;1726948;81;21188;-57
2021/09/11 02:29:48;;;;;;;25.97;16.30;;;;;;;14.09;64.01;100807.81;1752692;80;21599;-56
2021/09/11 02:32:16;;;;;;;23.52;14.78;;;;;;;14.05;64.09;100806.88;1754658;80;21470;-57
2021/09/11 02:34:43;;;;;;;24.50;16.12;;;;;;;14.00;64.28;100805.96;1759283;80;21559;-57
2021/09/11 02:37:12;;;;;;;24.90;15.63;;;;;;;13.94;64.42;100808.67;1757704;80;21147;-57
2021/09/11 02:39:43;;;;;;;25.02;15.32;;;;;;;13.90;64.56;100810.38;1753716;80;21520;-57
2021/09/11 02:42:09;;;;;;;21.05;15.13;;;;;;;13.87;64.62;100815.94;1729787;81;21790;-56
2021/09/11 02:44:36;;;;;;;22.42;15.32;;;;;;;13.85;64.59;100816.10;1732472;80;21100;-57
2021/09/11 02:47:04;;;;;;;23.47;14.28;;;;;;;13.84;64.62;100804.33;1753400;80;21051;-56
2021/09/11 02:49:31;;;;;;;18.75;13.35;;;;;;;13.87;64.64;100807.54;1731856;80;21125;-57
2021/09/11 02:51:57;;;;;;;20.82;15.75;;;;;;;13.92;64.60;100806.65;1752393;80;21516;-57
2021/09/11 02:54:24;;;;;;;22.58;14.60;;;;;;;13.96;64.61;100805.06;1746596;80;21098;-57
2021/09/11 02:56:51;;;;;;;21.90;14.68;;;;;;;13.94;64.40;100802.05;1752648;80;21136;-57
2021/09/11 02:59:17;;;;;;;21.52;14.65;;;;;;;13.92;64.37;100806.65;1750971;80;21089;-56
2021/09/11 03:01:44;;;;;;;22.50;15.90;;;;;;;13.89;64.46;100814.02;1702546;81;21698;-57
2021/09/11 03:04:10;;;;;;;19.55;14.75;;;;;;;13.86;64.51;100812.47;1749044;80;21073;-57
2021/09/11 03:06:36;;;;;;;22.27;14.38;;;;;;;13.84;64.40;100811.77;1726222;80;21910;-57
2021/09/11 03:09:02;;;;;;;22.87;15.72;;;;;;;13.80;64.46;100813.02;1715488;81;21042;-57
2021/09/11 03:11:31;;;;;;;19.17;13.70;;;;;;;13.76;64.63;100811.59;1693270;83;21062;-56
2021/09/11 03:13:58;;;;;;;20.72;14.13;;;;;;;13.71;64.80;100812.48;1693708;83;21540;-56
2021/09/11 03:16:26;;;;;;;22.17;13.55;;;;;;;13.71;64.93;100806.70;1691691;83;21451;-56
2021/09/11 03:18:53;;;;;;;20.30;14.53;;;;;;;13.78;64.91;100814.11;1680324;83;21150;-57
2021/09/11 03:21:19;;;;;;;21.60;14.38;;;;;;;13.81;64.94;100812.03;1695697;83;21506;-57
2021/09/11 03:23:46;;;;;;;24.10;14.70;;;;;;;13.83;65.19;100812.73;1687189;83;21044;-57
2021/09/11 03:26:12;;;;;;;23.27;16.62;;;;;;;13.82;65.39;100816.36;1698996;82;21499;-57
2021/09/11 03:28:40;;;;;;;24.12;15.98;;;;;;;13.82;65.42;100808.89;1697882;82;21061;-57
2021/09/11 03:31:07;;;;;;;21.77;13.80;;;;;;;13.79;65.41;100815.30;1679998;82;21019;-57
2021/09/11 03:33:35;;;;;;;21.97;16.10;;;;;;;13.79;65.35;100818.44;1704365;82;21194;-56
2021/09/11 03:36:02;;;;;;;21.95;15.65;;;;;;;13.77;65.32;100815.92;1698573;82;21692;-56
2021/09/11 03:38:29;;;;;;;21.37;15.55;;;;;;;13.76;65.26;100819.53;1680959;83;21093;-56
2021/09/11 03:40:55;;;;;;;20.30;14.35;;;;;;;13.72;65.27;100818.96;1697933;82;21346;-56
2021/09/11 03:43:23;;;;;;;17.85;13.00;;;;;;;13.71;65.37;100818.59;1703909;82;21120;-56
2021/09/11 03:45:50;;;;;;;22.25;12.82;;;;;;;13.78;65.48;100816.75;1702704;82;21094;-56
2021/09/11 03:48:19;;;;;;;22.65;15.03;;;;;;;13.85;65.42;100824.04;1702800;82;21548;-57
2021/09/11 03:50:47;;;;;;;29.15;16.87;;;;;;;13.89;65.27;100821.46;1700060;82;21027;-56
2021/09/11 03:53:14;;;;;;;23.10;16.65;;;;;;;13.91;65.16;100822.66;1699715;82;21066;-58
2021/09/11 03:55:45;;;;;;;23.32;15.78;;;;;;;13.91;65.08;100823.98;1690460;82;21057;-57
2021/09/11 03:58:14;;;;;;;22.00;16.48;;;;;;;13.89;65.08;100821.46;1704353;82;21683;-56
2021/09/11 04:00:41;;;;;;;20.97;15.05;;;;;;;13.88;65.14;100811.02;1699112;82;21637;-57
2021/09/11 04:03:09;;;;;;;19.15;14.07;;;;;;;13.87;65.14;100818.58;1702062;82;21117;-58
2021/09/11 04:05:37;;;;;;;22.25;15.88;;;;;;;13.85;65.21;100822.72;1702058;82;21528;-58
2021/09/11 04:08:06;;;;;;;22.13;14.93;;;;;;;13.84;65.26;100825.48;1714353;81;21105;-57
2021/09/11 04:10:34;;;;;;;23.07;15.18;;;;;;;13.85;65.21;100821.39;1728325;81;21076;-58
2021/09/11 04:13:01;;;;;;;20.10;15.48;;;;;;;13.93;64.96;100824.67;1731659;81;21563;-57
2021/09/11 04:15:30;;;;;;;27.73;16.95;;;;;;;14.01;64.47;100831.45;1725326;81;21149;-58
2021/09/11 04:17:57;;;;;;;22.82;15.50;;;;;;;14.04;64.05;100832.52;1730463;81;21140;-59
2021/09/11 04:20:25;;;;;;;20.90;16.75;;;;;;;14.04;64.22;100827.72;1726168;81;23329;-59
2021/09/11 04:22:53;;;;;;;25.88;15.38;;;;;;;14.06;64.18;100831.06;1750718;80;21060;-59
2021/09/11 04:25:21;;;;;;;22.32;16.35;;;;;;;14.08;64.19;100828.62;1729241;80;21037;-61
2021/09/11 04:27:50;;;;;;;25.00;16.90;;;;;;;14.10;64.24;100829.81;1723111;81;21061;-59
2021/09/11 04:30:18;;;;;;;24.87;16.70;;;;;;;14.13;64.24;100834.84;1754830;80;21104;-59
2021/09/11 04:32:45;;;;;;;28.17;17.40;;;;;;;14.13;64.33;100833.52;1721866;81;21105;-59
2021/09/11 04:35:12;;;;;;;24.72;17.17;;;;;;;14.16;64.33;100840.36;1750953;80;21112;-58
2021/09/11 04:37:41;;;;;;;24.90;15.80;;;;;;;14.16;64.36;100839.87;1730572;81;21673;-59
2021/09/11 04:40:09;;;;;;;22.07;15.53;;;;;;;14.23;64.30;100839.66;1753449;80;21107;-60
2021/09/11 04:42:38;;;;;;;22.25;14.60;;;;;;;14.34;64.28;100832.58;1722337;81;21079;-61
2021/09/11 04:45:06;;;;;;;26.05;16.48;;;;;;;14.45;64.27;100831.14;1718994;80;21140;-57
2021/09/11 04:47:33;;;;;;;25.70;17.05;;;;;;;14.55;64.29;100830.67;1718896;81;21051;-57
2021/09/11 04:50:02;;;;;;;22.55;17.35;;;;;;;14.62;64.11;100827.84;1711074;81;21110;-58
2021/09/11 04:52:29;;;;;;;23.57;18.32;;;;;;;14.66;63.83;100827.93;1723848;81;21093;-59
2021/09/11 04:54:57;;;;;;;24.72;17.62;;;;;;;14.70;63.59;100826.34;1725965;81;21057;-58
2021/09/11 04:57:26;;;;;;;25.35;16.97;;;;;;;14.75;63.39;100829.40;1687418;81;21151;-58
2021/09/11 04:59:52;;;;;;;25.15;17.20;;;;;;;14.81;63.25;100830.15;1732095;81;21047;-58
2021/09/11 05:02:21;;;;;;;25.02;17.60;;;;;;;14.85;63.14;100830.23;1715907;81;21575;-57
2021/09/11 05:04:47;;;;;;;25.27;16.90;;;;;;;14.90;63.20;100825.84;1749035;80;21115;-58
2021/09/11 05:07:14;;;;;;;27.42;16.97;;;;;;;14.93;63.28;100829.05;1718022;81;21837;-56
2021/09/11 05:09:42;;;;;;;27.48;17.62;;;;;;;15.02;63.25;100829.52;1723121;81;21602;-58
2021/09/11 05:12:09;;;;;;;20.70;15.63;;;;;;;15.17;63.02;100831.75;1720566;81;21150;-57
2021/09/11 05:14:38;;;;;;;25.37;17.60;;;;;;;15.30;62.93;100828.77;1720984;81;21517;-58
2021/09/11 05:17:05;;;;;;;27.52;17.60;;;;;;;15.39;62.89;100823.95;1702914;82;20993;-57
2021/09/11 05:19:33;;;;;;;24.15;18.05;;;;;;;15.46;62.91;100826.37;1750174;80;21079;-57
2021/09/11 05:22:02;;;;;;;26.07;17.82;;;;;;;15.52;63.14;100824.48;1722803;81;21125;-58
2021/09/11 05:24:30;;;;;;;24.98;19.55;;;;;;;15.58;63.16;100821.73;1734054;81;21125;-57
2021/09/11 05:26:58;;;;;;;26.77;18.15;;;;;;;15.64;63.20;100818.50;1736732;81;21111;-57
2021/09/11 05:29:26;;;;;;;28.77;20.15;;;;;;;15.71;63.14;100824.89;1734080;81;21514;-56
2021/09/11 05:31:54;;;;;;;25.88;16.85;;;;;;;15.79;63.15;100822.38;1737206;81;21589;-57
2021/09/11 05:34:21;;;;;;;30.48;16.93;;;;;;;15.92;63.25;100819.87;1705162;81;21860;-57
2021/09/11 05:36:50;;;;;;;29.25;16.93;;;;;;;16.09;63.09;100826.24;1734806;81;21055;-60
2021/09/11 05:39:17;;;;;;;25.05;18.52;;;;;;;16.23;62.85;100827.55;1735173;81;21590;-57
2021/09/11 05:41:44;;;;;;;27.00;18.75;;;;;;;16.36;62.89;100825.38;1732339;81;21044;-58
2021/09/11 05:44:11;;;;;;;27.13;18.82;;;;;;;16.47;62.97;100821.16;1718101;81;21333;-58
2021/09/11 05:46:38;;;;;;;30.55;20.25;;;;;;;16.59;62.85;100820.44;1737844;81;21955;-57
2021/09/11 05:49:04;;;;;;;24.77;19.15;;;;;;;16.72;62.57;100824.06;1735621;81;21098;-57
2021/09/11 05:51:31;;;;;;;31.10;19.82;;;;;;;16.82;62.68;100818.16;1734929;81;21095;-58
2021/09/11 05:53:57;;;;;;;31.05;18.92;;;;;;;16.89;62.75;100817.95;1734635;81;21071;-56
2021/09/11 05:56:24;;;;;;;29.92;20.57;;;;;;;17.00;62.81;100818.69;1754231;80;21106;-58
2021/09/11 05:58:51;;;;;;;26.25;18.62;;;;;;;17.13;62.62;100819.13;1730004;81;21175;-58
2021/09/11 06:01:17;;;;;;;29.45;19.20;;;;;;;17.29;62.51;100817.06;1729664;81;21261;-57
2021/09/11 06:03:44;;;;;;;35.63;22.13;;;;;;;17.47;62.28;100819.67;1728840;81;21096;-58
2021/09/11 06:06:10;;;;;;;31.30;21.73;;;;;;;17.61;62.20;100823.06;1726144;81;21052;-57
2021/09/11 06:08:38;;;;;;;28.87;20.77;;;;;;;17.75;62.07;100816.81;1733206;81;21048;-57
2021/09/11 06:11:08;;;;;;;31.25;23.22;;;;;;;17.88;61.90;100816.41;1724758;81;22389;-59
2021/09/11 06:13:36;;;;;;;31.75;22.85;;;;;;;17.99;61.71;100820.95;1728374;81;21063;-57
2021/09/11 06:16:05;;;;;;;32.30;20.95;;;;;;;18.11;61.46;100822.83;1752734;80;21138;-58
2021/09/11 06:18:31;;;;;;;28.98;19.85;;;;;;;18.20;61.20;100823.68;1757357;80;22582;-58
2021/09/11 06:20:58;;;;;;;28.73;19.70;;;;;;;18.31;60.98;100824.72;1695055;81;21580;-58
2021/09/11 06:23:24;;;;;;;25.50;19.10;;;;;;;18.46;60.58;100828.06;1752220;80;21116;-58
2021/09/11 06:25:51;;;;;;;26.17;18.48;;;;;;;18.60;60.44;100827.94;1724924;81;21713;-59
2021/09/11 06:28:17;;;;;;;24.32;18.30;;;;;;;18.69;60.16;100822.46;1762055;80;21092;-59
2021/09/11 06:30:43;;;;;;;23.98;18.73;;;;;;;18.80;59.78;100819.13;1727632;81;21129;-59
2021/09/11 06:33:10;;;;;;;22.50;17.87;;;;;;;18.89;59.36;100816.81;1731599;80;21006;-59
2021/09/11 06:35:37;;;;;;;28.65;19.92;;;;;;;18.95;58.92;100824.16;1715659;81;22108;-60
2021/09/11 06:38:03;;;;;;;33.75;24.05;;;;;;;19.01;58.83;100815.47;1761271;80;21065;-59
2021/09/11 06:40:30;;;;;;;33.92;21.42;;;;;;;19.07;58.93;100817.48;1722923;81;21068;-60
2021/09/11 06:42:58;;;;;;;102.32;50.12;;;;;;;19.14;58.72;100821.64;1759828;80;21057;-59
2021/09/11 06:45:24;;;;;;;52.40;34.70;;;;;;;19.19;58.67;100819.30;1754744;80;21191;-59
2021/09/11 06:47:53;;;;;;;31.75;20.05;;;;;;;19.26;58.58;100818.95;1752951;80;21109;-59
2021/09/11 06:50:19;;;;;;;34.10;22.27;;;;;;;19.30;58.08;100814.95;1721772;81;21027;-57
2021/09/11 06:52:46;;;;;;;38.65;21.97;;;;;;;19.37;58.21;100819.11;1728062;80;21045;-57
2021/09/11 06:55:12;;;;;;;33.58;23.10;;;;;;;19.52;57.97;100819.25;1699649;81;21106;-57
2021/09/11 06:57:39;;;;;;;39.25;23.87;;;;;;;19.65;57.95;100822.70;1758244;80;21092;-57
2021/09/11 07:00:07;;;;;;;43.33;27.60;;;;;;;19.75;58.05;100823.36;1700389;81;21050;-57
2021/09/11 07:02:34;;;;;;;49.90;30.37;;;;;;;19.83;58.13;100826.00;1752459;80;21568;-58
2021/09/11 07:05:03;;;;;;;42.75;27.00;;;;;;;19.87;58.21;100825.19;1750469;80;21100;-57
2021/09/11 07:07:34;;;;;;;26.20;17.52;;;;;;;19.92;58.06;100827.31;1753067;80;21050;-57
2021/09/11 07:10:00;;;;;;;17.65;14.93;;;;;;;19.96;57.83;100826.80;1720936;81;21710;-57
2021/09/11 07:12:27;;;;;;;33.10;22.17;;;;;;;19.98;56.63;100827.96;1723110;80;21080;-57
2021/09/11 07:14:56;;;;;;;22.93;17.32;;;;;;;19.98;56.29;100823.44;1724388;81;21066;-56
2021/09/11 07:17:22;;;;;;;24.67;17.00;;;;;;;19.99;56.26;100814.44;1748082;80;21093;-58
2021/09/11 07:19:48;;;;;;;21.82;15.15;;;;;;;20.00;56.13;100820.59;1723995;81;21109;-57
2021/09/11 07:22:17;;;;;;;19.70;14.80;;;;;;;20.01;55.54;100819.09;1753668;80;21096;-56
2021/09/11 07:24:43;;;;;;;19.35;14.80;;;;;;;20.03;55.18;100820.26;1719326;81;22591;-56
2021/09/11 07:27:10;;;;;;;19.32;14.68;;;;;;;20.04;55.59;100822.75;1751348;80;21088;-55
2021/09/11 07:29:36;;;;;;;25.10;14.83;;;;;;;20.08;55.55;100815.73;1695305;81;21063;-56
2021/09/11 07:32:04;;;;;;;31.00;16.73;;;;;;;20.11;55.31;100820.73;1753494;80;21105;-55
2021/09/11 07:34:31;;;;;;;19.35;14.20;;;;;;;20.15;55.70;100818.84;1691851;81;21073;-55
2021/09/11 07:36:57;;;;;;;24.77;12.90;;;;;;;20.28;55.76;100817.47;1720991;80;21635;-55
2021/09/11 07:39:25;;;;;;;16.35;11.80;;;;;;;20.45;55.23;100816.34;1723738;81;21177;-56
2021/09/11 07:41:51;;;;;;;19.82;13.25;;;;;;;20.60;54.60;100821.77;1752042;80;21653;-56
2021/09/11 07:44:17;;;;;;;20.62;13.65;;;;;;;20.67;54.12;100813.37;1722741;81;21139;-56
2021/09/11 07:46:44;;;;;;;15.50;12.45;;;;;;;20.77;53.74;100821.17;1755290;80;21101;-57
2021/09/11 07:49:12;;;;;;;16.73;11.70;;;;;;;20.86;52.24;100818.73;1755122;80;21037;-56
2021/09/11 07:51:38;;;;;;;16.48;12.20;;;;;;;20.94;51.99;100815.17;1717868;80;21143;-59
2021/09/11 07:54:05;;;;;;;14.78;11.12;;;;;;;20.99;51.78;100815.46;1746611;80;21559;-57
2021/09/11 07:56:32;;;;;;;20.15;13.68;;;;;;;21.07;51.24;100822.59;1757248;80;21014;-56
2021/09/11 07:58:59;;;;;;;16.23;13.30;;;;;;;21.13;51.42;100816.50;1693239;81;21781;-56
2021/09/11 08:01:26;;;;;;;18.30;13.78;;;;;;;21.20;51.86;100816.13;1726069;80;22454;-56
2021/09/11 08:03:52;;;;;;;16.42;13.08;;;;;;;21.26;52.27;100801.98;1722139;81;21160;-56
2021/09/11 08:06:18;;;;;;;18.05;13.35;;;;;;;21.32;53.10;100804.46;1733151;81;21003;-56
2021/09/11 08:08:45;;;;;;;17.90;14.33;;;;;;;21.34;53.83;100804.59;1756060;80;21081;-56
2021/09/11 08:11:13;;;;;;;19.20;13.75;;;;;;;21.39;54.41;100808.58;1719087;81;21150;-56
2021/09/11 08:13:41;;;;;;;19.92;13.45;;;;;;;21.47;54.42;100801.83;1729276;81;21970;-55
2021/09/11 08:16:07;;;;;;;17.52;13.90;;;;;;;21.60;53.81;100803.36;1754701;80;21013;-56
2021/09/11 08:18:34;;;;;;;16.07;13.20;;;;;;;21.70;53.17;100807.06;1730651;81;21044;-57
2021/09/11 08:21:01;;;;;;;16.15;13.05;;;;;;;21.75;53.18;100799.30;1728643;81;21105;-58
2021/09/11 08:23:27;;;;;;;18.65;12.23;;;;;;;21.81;53.10;100799.91;1754792;80;21061;-56
2021/09/11 08:25:54;;;;;;;15.40;11.90;;;;;;;21.93;52.79;100800.26;1723449;81;21212;-57
2021/09/11 08:28:21;;;;;;;18.07;13.35;;;;;;;22.06;52.66;100799.59;1721481;81;21120;-58
2021/09/11 08:30:47;;;;;;;16.70;13.58;;;;;;;22.17;51.92;100796.41;1722397;81;21068;-57
2021/09/11 08:33:15;;;;;;;26.68;13.43;;;;;;;22.26;51.36;100790.44;1753274;80;22217;-55
2021/09/11 08:35:42;;;;;;;16.17;11.97;;;;;;;22.33;50.79;100787.86;1694093;82;21178;-56
2021/09/11 08:38:10;;;;;;;19.20;14.03;;;;;;;22.39;51.24;100791.11;1757745;79;21078;-56
2021/09/11 08:40:37;;;;;;;14.90;11.57;;;;;;;22.48;50.96;100785.09;1725322;81;21027;-56
2021/09/11 08:43:03;;;;;;;16.12;12.43;;;;;;;22.53;50.17;100788.06;1751214;79;21035;-57
2021/09/11 08:45:29;;;;;;;14.13;11.80;;;;;;;22.55;50.44;100779.31;1734069;80;21045;-57
2021/09/11 08:47:55;;;;;;;17.07;12.63;;;;;;;22.61;50.07;100780.72;1698626;81;21070;-57
2021/09/11 08:50:22;;;;;;;20.17;12.65;;;;;;;22.68;49.83;100774.06;1724847;81;21123;-56
2021/09/11 08:52:49;;;;;;;17.40;12.73;;;;;;;22.76;49.26;100775.77;1760472;79;21599;-56
2021/09/11 08:55:17;;;;;;;16.05;13.43;;;;;;;22.82;48.46;100773.14;1748707;80;21088;-54
2021/09/11 08:58:04;;;;;;;16.27;12.23;;;;;;;22.87;47.95;100774.42;1756083;80;21080;-56
2021/09/11 09:00:46;;;;;;;15.63;12.28;;;;;;;22.89;47.84;100762.46;1755963;80;21121;-57
2021/09/11 09:03:37;;;;;;;17.32;12.88;;;;;;;22.98;48.57;100769.84;1755678;79;21040;-56
2021/09/11 09:06:18;;;;;;;20.52;15.45;;;;;;;23.07;48.10;100764.70;1755588;79;21060;-57
2021/09/11 09:08:48;;;;;;;17.17;12.58;;;;;;;23.11;47.61;100763.78;1756628;79;21104;-55
2021/09/11 09:11:29;;;;;;;31.82;23.07;;;;;;;23.16;47.43;100766.19;1722602;80;21593;-56
2021/09/11 09:14:06;;;;;;;19.67;13.85;;;;;;;23.18;46.79;100760.13;1735377;81;21108;-56
2021/09/11 09:16:40;;;;;;;21.40;16.25;;;;;;;23.25;47.16;100753.95;1701844;81;21081;-57
2021/09/11 09:19:20;;;;;;;20.55;14.40;;;;;;;23.26;46.69;100752.42;1750785;79;21070;-56
2021/09/11 09:21:48;;;;;;;20.27;12.90;;;;;;;23.32;46.62;100752.16;1751224;79;21156;-56
2021/09/11 09:24:31;;;;;;;17.67;13.80;;;;;;;23.40;46.68;100746.60;1721997;81;21168;-56
2021/09/11 09:27:02;;;;;;;17.82;15.20;;;;;;;23.46;46.29;100743.66;1754225;79;21107;-56
2021/09/11 09:29:29;;;;;;;19.57;14.30;;;;;;;23.52;46.65;100743.69;1729105;81;22298;-55
2021/09/11 09:31:56;;;;;;;18.20;12.78;;;;;;;23.60;45.82;100743.20;1746536;79;21081;-56
2021/09/11 09:34:39;;;;;;;15.50;10.95;;;;;;;23.66;45.58;100743.23;1723869;81;21872;-57
2021/09/11 09:37:14;;;;;;;15.95;12.10;;;;;;;23.74;45.06;100739.55;1758300;79;21175;-58
2021/09/11 09:39:45;;;;;;;15.55;13.22;;;;;;;23.84;44.89;100737.34;1719263;81;21103;-56
2021/09/11 09:42:13;;;;;;;13.95;11.73;;;;;;;23.89;44.73;100744.28;1748982;80;21144;-57
2021/09/11 09:44:46;;;;;;;18.52;11.95;;;;;;;23.93;44.49;100741.48;1729292;79;21141;-57
2021/09/11 09:47:23;;;;;;;15.20;12.25;;;;;;;24.00;45.29;100739.34;1725179;80;21124;-57
2021/09/11 09:50:15;;;;;;;20.90;13.00;;;;;;;24.12;45.11;100739.05;1761398;79;21549;-56
2021/09/11 09:52:42;;;;;;;16.55;12.55;;;;;;;24.22;44.00;100740.83;1730189;79;21655;-57
2021/09/11 09:55:09;;;;;;;15.78;12.28;;;;;;;24.28;43.27;100734.64;1755316;79;21494;-56
2021/09/11 09:59:59;;;;;;;17.17;11.18;;;;;;;24.38;43.05;100732.08;1848735;75;22080;-56
2021/09/11 10:02:27;;;;;;;16.80;12.05;;;;;;;24.39;42.85;100733.72;1815550;77;21156;-56
2021/09/11 10:04:55;;;;;;;15.75;11.70;;;;;;;24.46;42.85;100723.78;1806176;77;21431;-56
2021/09/11 10:07:21;;;;;;;14.50;11.30;;;;;;;24.53;42.45;100724.64;1807874;77;21525;-56
2021/09/11 10:09:50;;;;;;;15.83;12.15;;;;;;;24.58;42.19;100727.56;1796904;77;21041;-54
2021/09/11 10:12:41;;;;;;;12.33;10.95;;;;;;;24.67;43.13;100722.80;1790039;77;21089;-56
2021/09/11 10:15:33;;;;;;;17.17;12.70;;;;;;;24.74;42.68;100718.23;1816514;77;21062;-56
2021/09/11 10:17:59;;;;;;;14.07;11.65;;;;;;;24.83;43.11;100712.95;1817905;77;21465;-64
2021/09/11 10:20:26;;;;;;;15.32;11.43;;;;;;;24.92;42.53;100714.09;1820090;77;22322;-65
2021/09/11 10:23:05;;;;;;;13.10;11.43;;;;;;;24.99;42.10;100708.98;1818188;77;21158;-74
2021/09/11 10:25:43;;;;;;;13.98;11.25;;;;;;;25.06;41.80;100707.63;1809394;77;21532;-64
2021/09/11 10:28:24;;;;;;;15.10;12.65;;;;;;;25.14;41.80;100703.36;1815366;77;21089;-64
2021/09/11 10:31:08;;;;;;;15.13;11.48;;;;;;;25.17;41.35;100706.16;1810628;77;21731;-65
2021/09/11 10:33:45;;;;;;;14.00;10.08;;;;;;;25.15;40.97;100701.48;1800592;78;21569;-65
2021/09/11 10:36:35;;;;;;;15.55;10.82;;;;;;;25.21;41.66;100693.91;1789056;77;21037;-65
2021/09/11 10:39:09;;;;;;;13.90;11.03;;;;;;;25.28;41.11;100695.27;1799143;78;21059;-64
2021/09/11 10:41:36;;;;;;;12.53;11.20;;;;;;;25.38;41.20;100693.77;1817483;77;21049;-64
2021/09/11 10:44:07;;;;;;;12.07;9.98;;;;;;;25.44;40.83;100693.98;1812714;77;23309;-64
2021/09/11 10:46:54;;;;;;;14.73;10.90;;;;;;;25.50;39.58;100691.77;1822149;78;21082;-64
2021/09/11 10:49:32;;;;;;;11.68;10.23;;;;;;;25.57;40.30;100679.92;1824564;77;21085;-64
2021/09/11 10:52:03;;;;;;;14.58;10.82;;;;;;;25.68;40.78;100680.28;1820933;77;21026;-66
2021/09/11 10:54:39;;;;;;;11.10;9.50;;;;;;;25.79;39.37;100675.56;1818466;77;21526;-66
2021/09/11 10:57:15;;;;;;;12.33;10.50;;;;;;;25.87;38.60;100674.47;1813829;77;21552;-64
2021/09/11 10:59:49;;;;;;;13.05;11.20;;;;;;;25.93;38.09;100670.38;1818135;77;21044;-64
2021/09/11 11:02:32;;;;;;;12.43;9.10;;;;;;;25.98;37.91;100671.11;1815207;77;21347;-63
2021/09/11 11:05:08;;;;;;;14.23;9.70;;;;;;;25.97;37.51;100668.10;1752840;79;21127;-64
2021/09/11 11:07:44;;;;;;;12.93;9.73;;;;;;;25.94;37.56;100663.95;1781821;78;21554;-65
2021/09/11 11:10:13;;;;;;;13.08;9.83;;;;;;;25.92;37.26;100663.86;1782643;78;21504;-63
2021/09/11 11:24:59;;;;;;;13.58;11.33;;;;;;;27.73;35.23;100641.29;1726983;80;22800;-67
2021/09/11 11:27:27;;;;;;;13.32;10.38;;;;;;;27.89;34.27;100647.39;1758208;80;21488;-66
2021/09/11 11:29:55;;;;;;;14.00;10.32;;;;;;;27.75;34.44;100638.64;1757167;80;22381;-66
2021/09/11 11:32:26;;;;;;;13.98;11.10;;;;;;;27.64;34.34;100638.09;1729197;81;21146;-68